Time;durP1;ratioP1;P1;durP2;ratioP2;P2;SDS_P1;SDS_P2;PMS_P1;PMS_P2;Temp;Humidity;BMP_temperature;BMP_pressure;BME280_temperature;BME280_humidity;BME280_pressure;Samples;Min_cycle;Max_cycle;Signal;HPM_P1;HPM_P2
2021/09/16 00:00:59;;;;;;;27.48;20.58;;;;;;;19.54;63.54;98170.44;5082965;28;20063;-69
2021/09/16 00:03:25;;;;;;;25.67;19.55;;;;;;;19.51;63.46;98168.38;5086815;28;20666;-68
2021/09/16 00:05:51;;;;;;;28.40;20.65;;;;;;;19.50;63.67;98166.78;5077707;28;20031;-69
2021/09/16 00:08:17;;;;;;;29.98;21.90;;;;;;;19.48;63.82;98171.91;5077810;28;20036;-69
2021/09/16 00:10:43;;;;;;;30.45;21.90;;;;;;;19.43;63.81;98161.88;5083526;28;20107;-69
2021/09/16 00:13:08;;;;;;;29.65;20.77;;;;;;;19.45;63.96;98164.28;5083928;28;20059;-68
2021/09/16 00:15:34;;;;;;;30.63;21.02;;;;;;;19.45;63.90;98158.72;5079682;28;20080;-67
2021/09/16 00:17:59;;;;;;;30.38;21.00;;;;;;;19.45;63.78;98164.28;5079991;28;20032;-68
2021/09/16 00:20:25;;;;;;;29.90;20.80;;;;;;;19.47;63.96;98164.72;5084067;28;20036;-68
2021/09/16 00:22:50;;;;;;;29.35;20.83;;;;;;;19.47;63.91;98168.31;5081039;28;20032;-68
2021/09/16 00:25:16;;;;;;;31.40;21.33;;;;;;;19.49;64.05;98165.16;5080480;28;20020;-68
2021/09/16 00:27:41;;;;;;;29.58;20.75;;;;;;;19.47;63.96;98168.31;5083010;28;20025;-68
2021/09/16 00:30:09;;;;;;;27.15;20.30;;;;;;;19.45;63.69;98167.06;5084041;28;20052;-68
2021/09/16 00:32:35;;;;;;;28.77;21.17;;;;;;;19.43;64.30;98161.88;5079038;28;20020;-68
2021/09/16 00:35:01;;;;;;;29.48;20.85;;;;;;;19.36;63.81;98156.16;5078689;28;20035;-68
2021/09/16 00:37:26;;;;;;;31.15;21.55;;;;;;;19.34;64.24;98156.53;5079660;28;20020;-68
2021/09/16 00:39:51;;;;;;;30.10;21.85;;;;;;;19.35;64.09;98160.09;5080677;28;20027;-68
2021/09/16 00:42:18;;;;;;;29.45;21.25;;;;;;;19.33;64.37;98145.75;5089134;28;20025;-68
2021/09/16 00:44:45;;;;;;;32.90;23.20;;;;;;;19.31;64.58;98151.69;5087355;28;20464;-68
2021/09/16 00:47:11;;;;;;;33.00;22.80;;;;;;;19.29;64.32;98151.22;5089563;28;20080;-68
2021/09/16 00:49:37;;;;;;;32.75;22.60;;;;;;;19.29;64.61;98148.44;5084972;28;20027;-68
2021/09/16 00:52:06;;;;;;;31.92;22.20;;;;;;;19.24;64.50;98145.13;5088902;28;20024;-68
2021/09/16 00:54:33;;;;;;;33.05;22.27;;;;;;;19.24;64.84;98143.16;5085480;28;20048;-68
2021/09/16 00:57:00;;;;;;;34.53;22.50;;;;;;;19.19;64.84;98141.47;5084161;28;20074;-69
2021/09/16 00:59:26;;;;;;;32.97;22.27;;;;;;;19.15;65.05;98145.34;5088290;28;20044;-68
2021/09/16 01:01:51;;;;;;;30.30;21.70;;;;;;;19.12;64.94;98141.31;5088108;28;20512;-68
2021/09/16 01:04:17;;;;;;;33.58;22.35;;;;;;;19.08;65.22;98140.44;5090859;28;20021;-68
2021/09/16 01:06:42;;;;;;;30.67;22.33;;;;;;;19.07;65.22;98151.88;5086840;28;20081;-70
2021/09/16 01:09:11;;;;;;;30.00;20.65;;;;;;;19.02;65.17;98148.22;5090552;28;20028;-69
2021/09/16 01:11:36;;;;;;;32.40;21.33;;;;;;;18.96;65.20;98143.28;5093973;28;20016;-67
2021/09/16 01:14:03;;;;;;;29.25;21.40;;;;;;;18.93;65.53;98150.38;5090690;28;20392;-68
2021/09/16 01:16:28;;;;;;;31.75;21.58;;;;;;;18.95;65.48;98144.44;5091862;28;20491;-68
2021/09/16 01:18:54;;;;;;;31.23;22.38;;;;;;;18.96;65.59;98141.31;5091362;28;20023;-68
2021/09/16 01:21:21;;;;;;;30.48;22.70;;;;;;;18.99;65.82;98137.81;5090430;28;20047;-68
2021/09/16 01:23:48;;;;;;;28.40;21.08;;;;;;;19.01;65.87;98145.81;5087362;28;20389;-68
2021/09/16 01:26:14;;;;;;;29.10;21.17;;;;;;;19.03;65.73;98129.56;5098061;28;20054;-68
2021/09/16 01:28:39;;;;;;;30.95;21.45;;;;;;;19.08;65.92;98134.88;5070447;28;20028;-68
2021/09/16 01:31:05;;;;;;;31.92;21.38;;;;;;;19.09;65.80;98136.47;5093892;28;20032;-68
2021/09/16 01:33:30;;;;;;;30.67;21.77;;;;;;;19.13;65.75;98140.16;5087426;28;20064;-68
2021/09/16 01:35:56;;;;;;;30.05;22.10;;;;;;;19.10;65.71;98142.81;5091475;28;20108;-68
2021/09/16 01:38:21;;;;;;;32.55;22.25;;;;;;;19.01;65.54;98137.47;5083943;28;20372;-68
2021/09/16 01:40:47;;;;;;;31.30;21.58;;;;;;;18.94;65.56;98131.72;5084903;28;20468;-68
2021/09/16 01:43:12;;;;;;;26.35;19.60;;;;;;;18.89;65.43;98139.16;5086289;28;20103;-68
2021/09/16 01:45:38;;;;;;;28.88;21.88;;;;;;;18.90;65.84;98145.53;5079970;28;20089;-68
2021/09/16 01:48:03;;;;;;;30.73;21.88;;;;;;;18.97;65.99;98139.34;5082908;28;20027;-67
2021/09/16 01:50:29;;;;;;;29.92;21.77;;;;;;;19.04;66.15;98131.97;5068327;28;20908;-68
2021/09/16 01:52:54;;;;;;;30.35;21.45;;;;;;;19.07;65.99;98133.25;5088402;28;20021;-68
2021/09/16 01:55:20;;;;;;;27.70;21.13;;;;;;;19.12;65.83;98129.38;5060394;28;20750;-68
2021/09/16 01:57:46;;;;;;;32.75;22.10;;;;;;;19.16;66.19;98136.63;5069580;28;20109;-68
2021/09/16 02:00:12;;;;;;;28.85;21.25;;;;;;;19.19;65.98;98132.31;5089735;28;20469;-68
2021/09/16 02:02:38;;;;;;;27.38;20.50;;;;;;;19.23;66.00;98136.00;5088914;28;20028;-68
2021/09/16 02:05:05;;;;;;;29.90;20.17;;;;;;;19.21;65.71;98131.94;5087149;28;20041;-68
2021/09/16 02:07:30;;;;;;;30.33;20.60;;;;;;;19.27;66.29;98134.09;5071475;28;20073;-68
2021/09/16 02:09:56;;;;;;;26.90;20.60;;;;;;;19.31;65.94;98123.06;5086660;28;20032;-68
2021/09/16 02:12:21;;;;;;;28.23;19.33;;;;;;;19.34;65.65;98131.50;5081962;28;20020;-68
2021/09/16 02:14:47;;;;;;;25.02;19.10;;;;;;;19.39;65.54;98124.81;5068853;28;20012;-68
2021/09/16 02:17:12;;;;;;;26.52;18.95;;;;;;;19.40;65.70;98131.19;5087133;28;20508;-68
2021/09/16 02:19:38;;;;;;;25.40;18.23;;;;;;;19.45;65.73;98117.81;5092810;28;20028;-68
2021/09/16 02:22:04;;;;;;;26.70;17.20;;;;;;;19.45;65.58;98123.38;5082939;28;20096;-68
2021/09/16 02:24:29;;;;;;;25.10;17.35;;;;;;;19.38;65.48;98116.84;5092280;28;20028;-68
2021/09/16 02:26:54;;;;;;;27.10;18.17;;;;;;;19.33;65.42;98120.72;5088992;28;20042;-68
2021/09/16 02:29:20;;;;;;;27.70;17.15;;;;;;;19.32;65.46;98116.31;5084534;28;20024;-69
2021/09/16 02:31:45;;;;;;;24.40;17.42;;;;;;;19.28;65.48;98116.25;5083758;28;20024;-68
2021/09/16 02:34:11;;;;;;;26.02;17.98;;;;;;;19.22;65.23;98120.47;5086001;28;20039;-69
2021/09/16 02:36:36;;;;;;;24.90;17.90;;;;;;;19.15;65.51;98117.53;5088884;28;20536;-68
2021/09/16 02:39:02;;;;;;;27.02;17.65;;;;;;;19.13;65.56;98114.31;5090313;28;20032;-70
2021/09/16 02:41:27;;;;;;;25.17;17.02;;;;;;;19.12;65.61;98121.03;5083365;28;20476;-69
2021/09/16 02:43:53;;;;;;;30.20;18.48;;;;;;;19.08;65.59;98120.97;5091150;28;20032;-69
2021/09/16 02:46:19;;;;;;;24.25;18.52;;;;;;;19.04;65.63;98123.66;5086413;28;20025;-69
2021/09/16 02:48:44;;;;;;;28.10;18.73;;;;;;;19.06;65.75;98125.25;5083517;28;20036;-69
2021/09/16 02:51:10;;;;;;;23.73;16.77;;;;;;;19.04;65.90;98126.44;5084929;28;20077;-68
2021/09/16 02:53:35;;;;;;;25.92;17.63;;;;;;;19.01;66.00;98118.00;5087766;28;20069;-68
2021/09/16 02:56:00;;;;;;;27.27;17.90;;;;;;;19.01;66.25;98113.25;5086567;28;20020;-69
2021/09/16 02:58:26;;;;;;;23.83;17.95;;;;;;;18.99;66.42;98110.03;5086089;28;20055;-68
2021/09/16 03:00:51;;;;;;;23.90;17.42;;;;;;;18.96;66.38;98113.53;5093249;28;20026;-68
2021/09/16 03:03:17;;;;;;;26.25;17.00;;;;;;;18.96;66.44;98110.75;5082379;28;20024;-68
2021/09/16 03:05:42;;;;;;;27.42;17.73;;;;;;;18.95;66.61;98106.31;5062410;28;20392;-68
2021/09/16 03:08:08;;;;;;;23.02;18.02;;;;;;;18.95;66.72;98113.88;5083072;28;20020;-68
2021/09/16 03:10:33;;;;;;;26.80;19.20;;;;;;;18.94;66.74;98110.31;5086074;28;20047;-68
2021/09/16 03:12:59;;;;;;;29.17;19.85;;;;;;;19.02;66.78;98112.09;5087906;28;20038;-69
2021/09/16 03:15:25;;;;;;;24.38;18.20;;;;;;;19.03;66.51;98110.91;5087935;28;20073;-69
2021/09/16 03:17:50;;;;;;;24.00;18.23;;;;;;;18.98;66.53;98107.63;5090177;28;20024;-69
2021/09/16 03:20:16;;;;;;;27.17;19.23;;;;;;;18.97;66.73;98109.56;5098884;28;20127;-68
2021/09/16 03:22:42;;;;;;;29.33;20.63;;;;;;;19.01;66.84;98107.69;5112018;28;20027;-69
2021/09/16 03:25:08;;;;;;;26.65;17.52;;;;;;;18.99;66.63;98118.38;5111791;28;20016;-69
2021/09/16 03:27:34;;;;;;;28.25;19.70;;;;;;;18.94;66.59;98120.59;5088132;28;20073;-68
2021/09/16 03:30:00;;;;;;;26.80;19.98;;;;;;;18.85;66.65;98118.81;5090804;28;20028;-68
2021/09/16 03:32:25;;;;;;;29.60;19.23;;;;;;;18.84;66.99;98122.75;5093216;28;20039;-68
2021/09/16 03:34:51;;;;;;;29.90;19.60;;;;;;;18.84;67.03;98122.75;5089421;28;20028;-68
2021/09/16 03:37:16;;;;;;;29.73;20.30;;;;;;;18.84;67.12;98119.97;5087421;28;20419;-68
2021/09/16 03:39:42;;;;;;;30.35;18.75;;;;;;;18.88;66.97;98122.84;5097250;28;20028;-68
2021/09/16 03:42:07;;;;;;;29.27;19.80;;;;;;;18.86;66.97;98123.19;5098754;28;20028;-69
2021/09/16 03:44:33;;;;;;;30.30;20.27;;;;;;;18.80;67.14;98124.63;5111731;28;20028;-68
2021/09/16 03:46:58;;;;;;;30.48;20.80;;;;;;;18.75;66.74;98117.38;5089477;28;20357;-68
2021/09/16 03:49:23;;;;;;;30.58;20.13;;;;;;;18.74;67.11;98123.31;5090432;28;20036;-69
2021/09/16 03:51:49;;;;;;;29.13;19.60;;;;;;;18.79;66.98;98116.66;5088307;28;20085;-68
2021/09/16 03:54:14;;;;;;;28.05;19.40;;;;;;;18.84;67.09;98119.19;5088978;28;20035;-69
2021/09/16 03:56:40;;;;;;;27.65;19.42;;;;;;;18.83;67.16;98123.13;5091141;28;20530;-69
2021/09/16 03:59:05;;;;;;;28.13;20.40;;;;;;;18.85;67.39;98113.25;5093757;28;20039;-68
2021/09/16 04:01:30;;;;;;;31.70;21.52;;;;;;;18.89;67.30;98113.34;5087013;28;20028;-69
2021/09/16 04:03:56;;;;;;;28.38;20.02;;;;;;;18.93;67.15;98114.25;5091263;28;20081;-68
2021/09/16 04:06:21;;;;;;;30.88;19.50;;;;;;;18.93;67.22;98125.34;5081702;28;20085;-68
2021/09/16 04:08:46;;;;;;;29.65;19.60;;;;;;;18.89;67.13;98119.69;5089697;28;20039;-68
2021/09/16 04:11:12;;;;;;;29.50;19.50;;;;;;;18.86;67.07;98114.84;5090109;28;20037;-68
2021/09/16 04:13:37;;;;;;;27.83;20.67;;;;;;;18.86;67.20;98123.19;5091518;28;20020;-68
2021/09/16 04:16:03;;;;;;;27.52;19.77;;;;;;;18.84;67.22;98119.19;5091693;28;20024;-68
2021/09/16 04:18:29;;;;;;;27.67;20.35;;;;;;;18.81;67.25;98119.91;5089656;28;20024;-68
2021/09/16 04:20:54;;;;;;;28.63;20.10;;;;;;;18.74;67.16;98113.00;5090280;28;20188;-68
2021/09/16 04:23:20;;;;;;;31.88;20.35;;;;;;;18.70;67.46;98125.97;5072843;28;20424;-68
2021/09/16 04:25:45;;;;;;;28.95;19.15;;;;;;;18.68;67.33;98117.19;5089018;28;20404;-68
2021/09/16 04:28:11;;;;;;;28.23;18.65;;;;;;;18.69;67.51;98118.03;5111033;28;20036;-69
2021/09/16 04:30:36;;;;;;;28.05;19.38;;;;;;;18.66;67.54;98124.28;5101716;28;20028;-68
2021/09/16 04:33:01;;;;;;;28.10;17.95;;;;;;;18.64;67.60;98113.53;5068763;28;20020;-69
2021/09/16 04:35:27;;;;;;;30.83;19.58;;;;;;;18.64;67.65;98119.09;5092508;28;20073;-68
2021/09/16 04:37:52;;;;;;;28.58;19.55;;;;;;;18.68;67.78;98127.53;5088704;28;20028;-68
2021/09/16 04:40:19;;;;;;;33.75;19.08;;;;;;;18.69;67.74;98121.59;5090286;28;20024;-69
2021/09/16 04:42:45;;;;;;;25.08;18.15;;;;;;;18.72;67.63;98120.88;5081755;28;20024;-68
2021/09/16 04:45:10;;;;;;;25.90;17.65;;;;;;;18.73;67.59;98124.47;5093154;28;20026;-68
2021/09/16 04:47:39;;;;;;;25.05;17.73;;;;;;;18.73;67.72;98125.28;5094823;28;20480;-68
2021/09/16 04:50:11;;;;;;;25.10;17.23;;;;;;;18.74;67.71;98132.44;5094363;28;20024;-68
2021/09/16 04:52:37;;;;;;;27.25;18.33;;;;;;;18.74;67.76;98135.22;5091802;28;20052;-68
2021/09/16 04:55:02;;;;;;;24.65;16.35;;;;;;;18.73;67.70;98133.59;5091708;28;20536;-69
2021/09/16 04:57:28;;;;;;;24.90;15.98;;;;;;;18.74;67.96;98137.19;5091521;28;20027;-67
2021/09/16 04:59:54;;;;;;;31.65;20.02;;;;;;;18.75;68.00;98144.34;5113470;28;20028;-68
2021/09/16 05:02:20;;;;;;;28.83;18.60;;;;;;;18.77;67.89;98144.78;5102126;28;20024;-68
2021/09/16 05:05:13;;;;;;;28.02;18.73;;;;;;;18.81;67.95;98147.69;5097940;28;20073;-68
2021/09/16 05:07:39;;;;;;;26.60;18.52;;;;;;;18.82;67.91;98143.72;5094173;28;20020;-68
2021/09/16 05:10:05;;;;;;;34.38;25.50;;;;;;;18.82;67.96;98149.28;5072078;28;20020;-68
2021/09/16 05:12:31;;;;;;;29.55;19.63;;;;;;;18.84;68.04;98149.75;5090625;28;20020;-69
2021/09/16 05:14:57;;;;;;;33.20;19.30;;;;;;;18.85;67.86;98145.78;5089658;28;20046;-69
2021/09/16 05:17:23;;;;;;;32.20;19.55;;;;;;;18.84;67.99;98139.41;5094327;28;20024;-69
2021/09/16 05:19:49;;;;;;;30.73;18.58;;;;;;;18.92;68.10;98143.19;5099294;28;20038;-69
2021/09/16 05:22:14;;;;;;;28.98;17.65;;;;;;;18.98;68.10;98141.75;5114127;28;20514;-69
2021/09/16 05:24:39;;;;;;;30.63;18.38;;;;;;;19.01;67.97;98141.03;5109278;28;20032;-68
2021/09/16 05:27:05;;;;;;;25.08;16.08;;;;;;;19.09;67.79;98141.22;5094292;28;20085;-69
2021/09/16 05:29:30;;;;;;;28.65;18.92;;;;;;;19.13;67.88;98142.94;5093090;28;20376;-68
2021/09/16 05:31:55;;;;;;;25.83;17.10;;;;;;;19.24;67.94;98134.84;5104121;28;20081;-68
2021/09/16 05:34:21;;;;;;;24.00;16.55;;;;;;;19.38;67.79;98139.09;5114429;28;20031;-69
2021/09/16 05:36:46;;;;;;;21.77;16.80;;;;;;;19.48;67.93;98144.09;5094588;28;20024;-69
2021/09/16 05:39:12;;;;;;;22.58;16.08;;;;;;;19.49;67.61;98137.34;5093571;28;20028;-69
2021/09/16 05:41:37;;;;;;;24.23;17.17;;;;;;;19.53;68.11;98138.25;5099262;28;20026;-68
2021/09/16 05:44:02;;;;;;;22.27;16.63;;;;;;;19.57;67.47;98133.56;5091572;28;20594;-68
2021/09/16 05:46:30;;;;;;;26.25;17.27;;;;;;;19.61;67.41;98140.00;5088970;28;20024;-69
2021/09/16 05:48:55;;;;;;;28.40;17.05;;;;;;;19.64;67.47;98136.50;5101171;28;20059;-68
2021/09/16 05:51:21;;;;;;;30.38;17.95;;;;;;;19.71;67.46;98132.25;5109431;28;20110;-69
2021/09/16 05:53:46;;;;;;;28.80;18.48;;;;;;;19.76;67.24;98138.31;5093817;28;20563;-69
2021/09/16 05:56:12;;;;;;;26.90;17.27;;;;;;;19.82;67.10;98138.84;5092329;28;20043;-69
2021/09/16 05:58:37;;;;;;;27.02;18.63;;;;;;;19.89;67.05;98136.22;5094928;28;20476;-69
2021/09/16 06:01:02;;;;;;;30.88;18.83;;;;;;;19.95;67.04;98131.19;5093749;28;20028;-69
2021/09/16 06:03:28;;;;;;;25.88;17.73;;;;;;;19.98;66.71;98140.78;5092596;28;20069;-68
2021/09/16 06:05:53;;;;;;;23.38;16.52;;;;;;;20.00;66.79;98144.78;5093610;28;20020;-69
2021/09/16 06:08:18;;;;;;;30.15;20.15;;;;;;;19.89;66.75;98150.16;5093781;28;20074;-67
2021/09/16 06:10:44;;;;;;;31.45;21.52;;;;;;;19.89;66.79;98144.59;5097533;28;20032;-68
2021/09/16 06:13:09;;;;;;;33.55;20.70;;;;;;;19.88;66.60;98147.72;5071988;28;20042;-68
2021/09/16 06:15:34;;;;;;;31.02;20.23;;;;;;;19.87;66.49;98151.66;5085903;28;20035;-69
2021/09/16 06:18:00;;;;;;;28.50;19.27;;;;;;;19.91;66.69;98152.56;5092223;28;20043;-68
2021/09/16 06:20:25;;;;;;;30.35;19.65;;;;;;;19.87;66.59;98158.03;5095512;28;20051;-70
2021/09/16 06:22:51;;;;;;;28.88;18.73;;;;;;;19.81;66.58;98153.13;5092299;28;20028;-68
2021/09/16 06:25:17;;;;;;;25.80;17.08;;;;;;;19.80;66.57;98157.88;5092326;28;20024;-68
2021/09/16 06:27:43;;;;;;;27.13;18.83;;;;;;;19.78;66.50;98165.78;5091039;28;20021;-69
2021/09/16 06:30:10;;;;;;;23.92;15.88;;;;;;;19.74;66.85;98165.72;5087405;28;20028;-69
2021/09/16 06:32:37;;;;;;;32.53;19.58;;;;;;;19.71;66.82;98174.78;5091506;28;20016;-68
2021/09/16 06:35:04;;;;;;;28.08;19.25;;;;;;;19.76;66.90;98174.50;5092427;28;20048;-68
2021/09/16 06:37:29;;;;;;;28.52;19.27;;;;;;;19.76;66.92;98168.16;5091678;28;20043;-69
2021/09/16 06:39:54;;;;;;;29.83;18.38;;;;;;;19.79;67.10;98175.72;5084971;28;20024;-68
2021/09/16 06:42:20;;;;;;;27.15;19.38;;;;;;;19.82;67.27;98175.00;5099637;28;20038;-69
2021/09/16 06:44:45;;;;;;;27.08;18.60;;;;;;;19.89;67.34;98174.41;5087425;28;20032;-69
2021/09/16 06:47:11;;;;;;;30.30;19.27;;;;;;;19.98;67.23;98179.75;5091519;28;20028;-70
2021/09/16 06:49:40;;;;;;;22.17;15.07;;;;;;;20.07;67.09;98175.56;5098695;28;20036;-67
2021/09/16 06:52:05;;;;;;;;;;;;;;;20.12;67.11;98174.47;5104958;28;20047;-69
2021/09/16 06:54:31;;;;;;;31.95;19.55;;;;;;;20.18;67.25;98172.97;5086055;28;19959;-69
2021/09/16 06:56:56;;;;;;;25.30;17.42;;;;;;;20.23;67.04;98175.47;5084732;28;20384;-67
2021/09/16 06:59:21;;;;;;;20.90;14.82;;;;;;;20.30;67.02;98182.34;5094095;28;20115;-68
2021/09/16 07:01:47;;;;;;;23.17;15.15;;;;;;;20.32;66.55;98177.22;5087711;28;20038;-69
2021/09/16 07:04:12;;;;;;;20.85;14.50;;;;;;;20.34;66.50;98178.47;5089363;28;20075;-68
2021/09/16 07:06:37;;;;;;;21.70;13.35;;;;;;;20.37;66.27;98186.09;5095771;28;20024;-67
2021/09/16 07:09:03;;;;;;;23.33;14.02;;;;;;;20.44;66.13;98192.94;5088723;28;20403;-69
2021/09/16 07:11:28;;;;;;;21.05;14.00;;;;;;;20.43;65.72;98200.53;5097530;28;20512;-68
2021/09/16 07:13:53;;;;;;;20.02;15.02;;;;;;;20.39;66.24;98191.28;5108822;28;20433;-69
2021/09/16 07:16:19;;;;;;;19.55;14.70;;;;;;;20.39;65.92;98196.84;5096049;28;20039;-69
2021/09/16 07:18:44;;;;;;;20.33;14.68;;;;;;;20.40;65.97;98189.28;5098147;28;20023;-68
2021/09/16 07:21:09;;;;;;;20.85;14.57;;;;;;;20.41;65.97;98185.34;5092438;28;20044;-69
2021/09/16 07:23:35;;;;;;;20.85;14.25;;;;;;;20.40;66.08;98189.28;5091509;28;20032;-68
2021/09/16 07:26:00;;;;;;;23.17;14.30;;;;;;;20.39;65.88;98188.50;5091952;28;20028;-69
2021/09/16 07:28:25;;;;;;;22.75;16.25;;;;;;;20.40;66.27;98192.06;5085473;28;20097;-70
2021/09/16 07:30:51;;;;;;;20.40;15.55;;;;;;;20.45;66.28;98195.38;5091900;28;20025;-70
2021/09/16 07:33:16;;;;;;;18.65;14.77;;;;;;;20.50;66.30;98192.31;5094506;28;20035;-69
2021/09/16 07:35:41;;;;;;;21.35;14.05;;;;;;;20.53;66.25;98194.34;5091744;28;20510;-69
2021/09/16 07:38:07;;;;;;;20.55;15.85;;;;;;;20.54;66.52;98192.34;5089677;28;20035;-69
2021/09/16 07:40:32;;;;;;;19.40;14.75;;;;;;;20.57;66.27;98190.81;5095893;28;20393;-69
2021/09/16 07:42:57;;;;;;;23.42;14.27;;;;;;;20.59;66.44;98199.59;5088548;28;20376;-68
2021/09/16 07:45:23;;;;;;;21.20;14.68;;;;;;;20.61;66.38;98200.03;5099017;28;20129;-68
2021/09/16 07:47:48;;;;;;;20.65;14.60;;;;;;;20.64;66.44;98202.91;5087217;28;20468;-69
2021/09/16 07:50:14;;;;;;;21.55;14.65;;;;;;;20.64;66.69;98205.69;5094991;28;20020;-69
2021/09/16 07:52:39;;;;;;;19.13;14.13;;;;;;;20.66;66.61;98206.13;5088245;28;20042;-69
2021/09/16 07:55:05;;;;;;;21.65;14.85;;;;;;;20.71;66.80;98202.22;5099941;28;20025;-68
2021/09/16 07:57:31;;;;;;;17.65;13.27;;;;;;;20.75;66.64;98203.09;5071168;28;20020;-68
2021/09/16 07:59:56;;;;;;;18.55;14.52;;;;;;;20.80;66.93;98197.25;5102524;28;20394;-68
2021/09/16 08:02:21;;;;;;;21.02;14.00;;;;;;;20.87;66.73;98207.69;5080092;28;20052;-68
2021/09/16 08:04:47;;;;;;;18.00;13.05;;;;;;;20.93;66.71;98208.22;5098525;28;20027;-67
2021/09/16 08:07:12;;;;;;;17.23;13.07;;;;;;;20.91;66.62;98216.13;5104225;28;20027;-68
2021/09/16 08:09:37;;;;;;;17.38;13.15;;;;;;;20.95;67.09;98215.00;5090153;28;20125;-68
2021/09/16 08:12:03;;;;;;;20.23;14.35;;;;;;;21.00;66.96;98218.66;5090445;28;20024;-68
2021/09/16 08:14:30;;;;;;;17.77;13.30;;;;;;;21.00;66.90;98213.88;5092113;28;20031;-69
2021/09/16 08:16:56;;;;;;;14.45;12.85;;;;;;;20.97;66.46;98212.66;5072766;28;20062;-68
2021/09/16 08:19:22;;;;;;;15.98;12.07;;;;;;;21.02;66.64;98225.47;5091038;28;20031;-72
2021/09/16 08:21:47;;;;;;;15.68;12.60;;;;;;;21.01;66.77;98228.63;5094920;28;20454;-72
2021/09/16 08:24:12;;;;;;;17.08;12.90;;;;;;;21.05;66.69;98223.94;5102034;28;20437;-73
2021/09/16 08:26:38;;;;;;;15.77;13.23;;;;;;;21.07;66.96;98222.38;5093520;28;20024;-74
2021/09/16 08:29:03;;;;;;;16.33;12.85;;;;;;;21.15;67.00;98230.84;5093064;28;20024;-73
2021/09/16 08:31:29;;;;;;;16.10;12.90;;;;;;;21.17;66.66;98232.13;5092996;28;20035;-74
2021/09/16 08:33:54;;;;;;;17.30;13.85;;;;;;;21.17;67.04;98231.28;5101056;28;20032;-73
2021/09/16 08:36:20;;;;;;;20.50;13.82;;;;;;;21.19;66.98;98235.34;5094759;28;20027;-75
2021/09/16 08:38:45;;;;;;;17.00;13.60;;;;;;;21.17;67.10;98237.69;5088358;28;20028;-72
2021/09/16 08:41:11;;;;;;;18.20;14.52;;;;;;;21.17;67.23;98240.47;5084976;28;20058;-74
2021/09/16 08:43:37;;;;;;;19.05;14.32;;;;;;;21.22;67.33;98233.78;5088241;28;20491;-70
2021/09/16 08:46:03;;;;;;;19.23;14.50;;;;;;;21.29;67.49;98239.47;5090173;28;20036;-73
2021/09/16 08:48:29;;;;;;;18.13;13.10;;;;;;;21.33;67.11;98231.97;5089600;28;20488;-73
2021/09/16 08:50:55;;;;;;;18.60;13.35;;;;;;;21.35;67.48;98234.38;5094276;28;20159;-74
2021/09/16 08:53:27;;;;;;;15.60;13.55;;;;;;;21.44;67.56;98231.31;5105466;28;20152;-74
2021/09/16 08:55:54;;;;;;;19.50;14.15;;;;;;;21.48;67.45;98229.38;5101302;28;20542;-73
2021/09/16 08:58:24;;;;;;;18.27;14.35;;;;;;;21.49;67.16;98233.78;5096927;28;20020;-74
2021/09/16 09:00:50;;;;;;;14.00;12.52;;;;;;;21.55;67.34;98226.72;5093414;28;20412;-72
2021/09/16 09:03:15;;;;;;;18.58;13.95;;;;;;;21.54;67.28;98234.28;5100532;28;20030;-71
2021/09/16 09:05:43;;;;;;;21.40;15.10;;;;;;;21.56;67.08;98231.09;5088357;28;20480;-69
2021/09/16 09:08:08;;;;;;;17.17;13.32;;;;;;;21.63;67.28;98236.00;5100915;28;20027;-70
2021/09/16 09:10:48;;;;;;;18.42;12.93;;;;;;;21.66;67.04;98236.06;5099802;28;20077;-71
2021/09/16 09:13:17;;;;;;;15.07;12.75;;;;;;;21.70;66.89;98228.56;5094324;28;20063;-70
2021/09/16 09:15:45;;;;;;;18.05;13.20;;;;;;;21.75;66.87;98230.22;5094027;28;20122;-71
2021/09/16 09:18:14;;;;;;;17.33;12.73;;;;;;;21.81;66.63;98231.50;5113776;28;20463;-72
2021/09/16 09:21:00;;;;;;;15.15;12.45;;;;;;;21.86;66.46;98231.19;5109109;28;20055;-73
2021/09/16 09:23:41;;;;;;;15.27;12.23;;;;;;;21.87;66.27;98226.38;5090751;28;20109;-71
2021/09/16 09:26:25;;;;;;;14.35;12.00;;;;;;;21.91;66.10;98234.81;5088313;28;20024;-73
2021/09/16 09:28:54;;;;;;;16.27;11.20;;;;;;;21.90;65.56;98225.63;5092160;28;20024;-74
2021/09/16 09:31:22;;;;;;;16.63;13.27;;;;;;;21.95;65.77;98227.31;5089826;28;20054;-69
2021/09/16 09:33:48;;;;;;;19.13;13.40;;;;;;;22.06;65.91;98219.84;5094932;28;20085;-69
2021/09/16 09:36:19;;;;;;;19.67;12.85;;;;;;;22.20;65.92;98224.00;5095280;28;20118;-70
2021/09/16 09:38:59;;;;;;;21.02;13.48;;;;;;;22.35;65.85;98219.41;5113103;28;20024;-68
2021/09/16 09:41:34;;;;;;;16.13;12.27;;;;;;;22.45;65.65;98221.56;5103294;28;20047;-70
2021/09/16 09:44:20;;;;;;;18.58;13.25;;;;;;;22.48;65.21;98219.97;5109247;28;20032;-70
2021/09/16 09:46:47;;;;;;;14.98;11.57;;;;;;;22.54;65.19;98221.25;5088529;28;20048;-69
2021/09/16 09:49:16;;;;;;;18.58;12.75;;;;;;;22.51;64.05;98222.81;5093959;28;20827;-70
2021/09/16 09:51:47;;;;;;;17.60;12.27;;;;;;;22.47;63.65;98216.38;5091616;28;20036;-72
2021/09/16 09:54:33;;;;;;;17.83;11.93;;;;;;;22.49;63.76;98218.78;5094229;28;20021;-70
2021/09/16 09:56:58;;;;;;;20.92;12.73;;;;;;;22.56;63.76;98225.28;5081855;28;20023;-70
2021/09/16 09:59:25;;;;;;;19.88;12.85;;;;;;;22.67;63.97;98222.59;5093641;28;20483;-70
2021/09/16 10:02:01;;;;;;;15.38;12.45;;;;;;;22.78;63.98;98216.31;5083218;28;20029;-70
2021/09/16 10:04:28;;;;;;;13.95;9.68;;;;;;;22.77;62.38;98204.31;5088666;28;20052;-72
2021/09/16 10:06:59;;;;;;;13.48;8.98;;;;;;;22.76;62.20;98211.09;5083175;28;20075;-69
2021/09/16 10:09:24;;;;;;;12.07;8.25;;;;;;;22.80;62.30;98214.72;5088302;28;20031;-69
2021/09/16 10:11:51;;;;;;;11.65;8.40;;;;;;;22.86;61.61;98215.97;5091531;28;20028;-71
2021/09/16 10:14:18;;;;;;;26.60;8.50;;;;;;;22.91;61.65;98212.00;5089086;28;20059;-73
2021/09/16 10:16:44;;;;;;;12.55;8.80;;;;;;;22.97;61.53;98207.69;5091726;28;20078;-73
2021/09/16 10:19:10;;;;;;;11.30;8.15;;;;;;;22.97;61.14;98212.50;5086134;28;20024;-72
2021/09/16 10:21:36;;;;;;;10.80;7.97;;;;;;;22.97;61.32;98213.28;5096303;28;20492;-71
2021/09/16 10:24:03;;;;;;;11.88;7.20;;;;;;;22.97;60.98;98218.09;5097588;28;20028;-72
2021/09/16 10:26:38;;;;;;;11.75;9.18;;;;;;;22.87;60.82;98209.19;5089388;28;20032;-71
2021/09/16 10:29:28;;;;;;;12.75;8.48;;;;;;;22.87;60.98;98200.81;5099260;28;20028;-73
2021/09/16 10:31:59;;;;;;;10.50;8.68;;;;;;;22.91;60.95;98200.84;5083598;28;20033;-73
2021/09/16 10:34:50;;;;;;;9.32;8.32;;;;;;;22.92;61.11;98205.22;5093286;28;20473;-74
2021/09/16 10:37:19;;;;;;;13.15;8.38;;;;;;;22.99;61.20;98205.31;5088694;28;20107;-73
2021/09/16 10:39:47;;;;;;;13.00;8.95;;;;;;;23.10;61.11;98197.00;5096051;28;20074;-70
2021/09/16 10:42:14;;;;;;;11.18;8.40;;;;;;;23.14;61.25;98189.44;5086452;28;20024;-69
2021/09/16 10:44:42;;;;;;;13.82;10.20;;;;;;;23.11;61.44;98187.41;5108005;28;20027;-70
2021/09/16 10:47:19;;;;;;;13.50;8.75;;;;;;;23.17;61.52;98190.69;5097142;28;20498;-71
2021/09/16 10:49:46;;;;;;;14.30;9.85;;;;;;;23.25;61.83;98191.56;5099028;28;20123;-69
2021/09/16 10:52:11;;;;;;;15.55;11.68;;;;;;;23.30;61.94;98191.97;5090549;28;20032;-70
2021/09/16 10:54:50;;;;;;;13.05;9.73;;;;;;;23.34;61.47;98190.03;5084985;28;20039;-69
2021/09/16 10:57:18;;;;;;;11.40;8.85;;;;;;;23.39;61.15;98193.66;5085854;28;20063;-69
2021/09/16 10:59:52;;;;;;;13.32;8.85;;;;;;;23.38;60.95;98195.66;5086125;28;20024;-70
2021/09/16 11:02:21;;;;;;;12.82;9.65;;;;;;;23.43;60.76;98181.31;5100113;28;20024;-70
2021/09/16 11:04:56;;;;;;;13.00;9.68;;;;;;;23.53;60.57;98184.53;5103114;28;20024;-70
2021/09/16 11:07:34;;;;;;;14.15;9.57;;;;;;;23.58;60.89;98184.19;5100736;28;20143;-69
2021/09/16 11:10:26;;;;;;;9.30;7.78;;;;;;;23.68;60.58;98183.44;5097217;28;20059;-69
2021/09/16 11:13:05;;;;;;;12.60;9.50;;;;;;;23.58;59.96;98173.78;5086317;28;20085;-69
2021/09/16 11:15:38;;;;;;;10.27;8.52;;;;;;;23.52;60.25;98182.94;5086015;28;20525;-70
2021/09/16 11:18:08;;;;;;;12.35;9.57;;;;;;;23.54;60.20;98180.53;5090140;28;20016;-70